Time;durP1;ratioP1;P1;durP2;ratioP2;P2;SDS_P1;SDS_P2;PMS_P1;PMS_P2;Temp;Humidity;BMP_temperature;BMP_pressure;BME280_temperature;BME280_humidity;BME280_pressure;Samples;Min_cycle;Max_cycle;Signal;HPM_P1;HPM_P2
2024/01/06 00:00:25;;;;;;;14.97;13.07;;;;;;;;;;5075300;28;20214;-47
2024/01/06 00:02:51;;;;;;;15.73;12.77;;;;;;;;;;5075249;28;20940;-46
2024/01/06 00:05:17;;;;;;;15.00;12.73;;;;;;;;;;5075241;28;20245;-47
2024/01/06 00:07:43;;;;;;;15.00;13.23;;;;;;;;;;5075456;28;20279;-47
2024/01/06 00:10:09;;;;;;;15.17;12.87;;;;;;;;;;5074951;28;20684;-47
2024/01/06 00:12:35;;;;;;;17.60;12.87;;;;;;;;;;5075322;28;20444;-47
2024/01/06 00:15:03;;;;;;;15.37;13.53;;;;;;;;;;5075187;28;20931;-46
2024/01/06 00:17:29;;;;;;;15.37;12.80;;;;;;;;;;5075084;28;20322;-46
2024/01/06 00:19:55;;;;;;;14.47;11.87;;;;;;;;;;5074998;28;20425;-46
2024/01/06 00:22:21;;;;;;;16.47;13.33;;;;;;;;;;5074921;28;20495;-46
2024/01/06 00:24:48;;;;;;;15.30;12.27;;;;;;;;;;5075083;28;20253;-47
2024/01/06 00:27:15;;;;;;;14.33;12.00;;;;;;;;;;5074864;28;20437;-47
2024/01/06 00:29:41;;;;;;;13.80;12.07;;;;;;;;;;5074891;28;20995;-47
2024/01/06 00:32:08;;;;;;;14.80;12.10;;;;;;;;;;5074792;28;20294;-47
2024/01/06 00:34:34;;;;;;;16.67;12.33;;;;;;;;;;5074437;28;20207;-47
2024/01/06 00:37:00;;;;;;;15.10;12.57;;;;;;;;;;5074945;28;20485;-47
2024/01/06 00:39:26;;;;;;;14.20;12.27;;;;;;;;;;5074644;28;20203;-46
2024/01/06 00:41:52;;;;;;;16.23;12.50;;;;;;;;;;5074606;28;20204;-46
2024/01/06 00:44:18;;;;;;;14.13;11.67;;;;;;;;;;5074564;28;20198;-46
2024/01/06 00:46:44;;;;;;;15.03;12.87;;;;;;;;;;5074857;28;20579;-46
2024/01/06 00:49:11;;;;;;;13.83;11.97;;;;;;;;;;5074445;28;20203;-46
2024/01/06 00:51:37;;;;;;;14.20;12.70;;;;;;;;;;5074616;28;20199;-46
2024/01/06 00:54:03;;;;;;;14.90;13.10;;;;;;;;;;5074497;28;20225;-46
2024/01/06 00:56:29;;;;;;;15.37;13.20;;;;;;;;;;5074361;28;20473;-46
2024/01/06 00:58:55;;;;;;;14.03;11.77;;;;;;;;;;5074439;28;20266;-46
2024/01/06 01:01:21;;;;;;;14.97;12.63;;;;;;;;;;5074346;28;20201;-46
2024/01/06 01:03:47;;;;;;;15.03;12.47;;;;;;;;;;5074359;28;20195;-46
2024/01/06 01:06:14;;;;;;;14.37;12.40;;;;;;;;;;5073961;28;20225;-46
2024/01/06 01:08:40;;;;;;;15.43;12.50;;;;;;;;;;5073059;28;20866;-46
2024/01/06 01:11:06;;;;;;;14.70;12.67;;;;;;;;;;5073922;28;20509;-46
2024/01/06 01:13:32;;;;;;;15.53;12.90;;;;;;;;;;5074074;28;20203;-46
2024/01/06 01:15:58;;;;;;;15.40;12.17;;;;;;;;;;5074176;28;20666;-46
2024/01/06 01:18:24;;;;;;;12.70;11.33;;;;;;;;;;5073837;28;20285;-46
2024/01/06 01:20:50;;;;;;;13.53;11.83;;;;;;;;;;5074071;28;20298;-47
2024/01/06 01:23:18;;;;;;;13.43;11.87;;;;;;;;;;5073923;28;20192;-47
2024/01/06 01:25:44;;;;;;;14.17;11.03;;;;;;;;;;5074136;28;20218;-46
2024/01/06 01:28:10;;;;;;;14.83;12.00;;;;;;;;;;5073696;28;20441;-46
2024/01/06 01:30:36;;;;;;;15.30;12.23;;;;;;;;;;5071857;28;20196;-47
2024/01/06 01:33:02;;;;;;;13.87;12.20;;;;;;;;;;5072229;28;20219;-47
2024/01/06 01:35:28;;;;;;;15.20;11.80;;;;;;;;;;5073869;28;20202;-48
2024/01/06 01:37:54;;;;;;;15.30;12.80;;;;;;;;;;5073938;28;20477;-46
2024/01/06 01:40:21;;;;;;;16.03;12.87;;;;;;;;;;5073701;28;20268;-48
2024/01/06 01:42:47;;;;;;;12.90;11.00;;;;;;;;;;5073731;28;20812;-47
2024/01/06 01:45:13;;;;;;;13.07;11.10;;;;;;;;;;5073756;28;20204;-47
2024/01/06 01:47:40;;;;;;;13.87;11.00;;;;;;;;;;5073462;28;20195;-47
2024/01/06 01:50:06;;;;;;;12.77;11.23;;;;;;;;;;5073212;28;20440;-47
2024/01/06 01:52:32;;;;;;;12.87;11.10;;;;;;;;;;5073278;28;20445;-47
2024/01/06 01:54:59;;;;;;;12.07;10.60;;;;;;;;;;5073302;28;20430;-47
2024/01/06 01:57:26;;;;;;;12.53;11.07;;;;;;;;;;5073018;28;20223;-47
2024/01/06 01:59:53;;;;;;;13.47;11.03;;;;;;;;;;5073020;28;20532;-47
2024/01/06 02:02:19;;;;;;;14.77;11.33;;;;;;;;;;5072779;28;21023;-47
2024/01/06 02:04:45;;;;;;;13.27;11.40;;;;;;;;;;5073081;28;20521;-47
2024/01/06 02:07:11;;;;;;;14.67;11.60;;;;;;;;;;5072776;28;20214;-48
2024/01/06 02:09:38;;;;;;;12.10;10.80;;;;;;;;;;5072736;28;20954;-47
2024/01/06 02:12:04;;;;;;;13.07;11.00;;;;;;;;;;5072656;28;20239;-47
2024/01/06 02:14:32;;;;;;;13.03;11.33;;;;;;;;;;5072793;28;20549;-48
2024/01/06 02:16:58;;;;;;;12.53;10.30;;;;;;;;;;5072845;28;20932;-48
2024/01/06 02:19:24;;;;;;;13.63;11.63;;;;;;;;;;5072236;28;20225;-47
2024/01/06 02:21:52;;;;;;;12.77;10.57;;;;;;;;;;5072459;28;20436;-48
2024/01/06 02:24:18;;;;;;;12.03;10.60;;;;;;;;;;5072813;28;20462;-47
2024/01/06 02:26:44;;;;;;;12.80;10.57;;;;;;;;;;5072954;28;20250;-47
2024/01/06 02:29:10;;;;;;;11.93;10.63;;;;;;;;;;5072547;28;20210;-47
2024/01/06 02:31:36;;;;;;;11.40;10.10;;;;;;;;;;5072333;28;20272;-48
2024/01/06 02:34:02;;;;;;;12.17;10.50;;;;;;;;;;5072387;28;20924;-48
2024/01/06 02:36:28;;;;;;;13.30;10.80;;;;;;;;;;5072377;28;20192;-47
2024/01/06 02:38:56;;;;;;;12.30;10.17;;;;;;;;;;5072522;28;20745;-47
2024/01/06 02:41:22;;;;;;;11.50;10.27;;;;;;;;;;5072273;28;20207;-48
2024/01/06 02:43:48;;;;;;;11.97;10.17;;;;;;;;;;5072162;28;20214;-48
2024/01/06 02:46:13;;;;;;;11.73;10.53;;;;;;;;;;5072044;28;20203;-48
2024/01/06 02:48:39;;;;;;;11.80;10.07;;;;;;;;;;5065036;28;20214;-47
2024/01/06 02:51:05;;;;;;;11.23;9.63;;;;;;;;;;5071936;28;20227;-48
2024/01/06 02:53:31;;;;;;;11.20;9.43;;;;;;;;;;5072073;28;20201;-47
2024/01/06 02:55:59;;;;;;;11.30;10.00;;;;;;;;;;5068635;28;20191;-47
2024/01/06 02:58:25;;;;;;;12.53;10.67;;;;;;;;;;5071726;28;20481;-47
2024/01/06 03:00:51;;;;;;;14.53;11.27;;;;;;;;;;5068568;28;20437;-47
2024/01/06 03:03:17;;;;;;;16.50;12.73;;;;;;;;;;5068493;28;20251;-47
2024/01/06 03:05:43;;;;;;;14.90;11.53;;;;;;;;;;5067117;28;20437;-48
2024/01/06 03:08:09;;;;;;;12.83;10.50;;;;;;;;;;5065204;28;20658;-48
2024/01/06 03:10:36;;;;;;;12.70;11.17;;;;;;;;;;5066489;28;20235;-48
2024/01/06 03:13:03;;;;;;;11.90;10.47;;;;;;;;;;5070249;28;20199;-48
2024/01/06 03:15:29;;;;;;;15.37;12.00;;;;;;;;;;5061686;28;20199;-48
2024/01/06 03:17:55;;;;;;;16.43;13.57;;;;;;;;;;5066804;28;20635;-48
2024/01/06 03:20:21;;;;;;;17.83;13.07;;;;;;;;;;5069878;28;20203;-48
2024/01/06 03:22:47;;;;;;;18.63;14.07;;;;;;;;;;5071978;28;20634;-48
2024/01/06 03:25:13;;;;;;;17.43;12.93;;;;;;;;;;5071840;28;20203;-48
2024/01/06 03:27:39;;;;;;;12.27;10.47;;;;;;;;;;5071583;28;20430;-48
2024/01/06 03:30:08;;;;;;;13.37;11.20;;;;;;;;;;5071786;28;20526;-48
2024/01/06 03:32:33;;;;;;;14.10;11.93;;;;;;;;;;5070896;28;20211;-48
2024/01/06 03:34:59;;;;;;;13.77;11.43;;;;;;;;;;5071644;28;20778;-48
2024/01/06 03:37:26;;;;;;;13.47;11.07;;;;;;;;;;5071482;28;20227;-48
2024/01/06 03:39:52;;;;;;;14.37;12.13;;;;;;;;;;5071564;28;20199;-48
2024/01/06 03:42:18;;;;;;;13.40;11.70;;;;;;;;;;5071576;28;20436;-48
2024/01/06 03:44:44;;;;;;;14.83;11.73;;;;;;;;;;5071475;28;20445;-48
2024/01/06 03:47:11;;;;;;;14.93;12.30;;;;;;;;;;5071497;28;20196;-48
2024/01/06 03:49:37;;;;;;;12.53;9.87;;;;;;;;;;5071338;28;20639;-48
2024/01/06 03:52:03;;;;;;;13.77;11.43;;;;;;;;;;5071456;28;20505;-48
2024/01/06 03:54:29;;;;;;;17.57;12.90;;;;;;;;;;5071505;28;20199;-48
2024/01/06 03:56:55;;;;;;;16.77;12.43;;;;;;;;;;5071302;28;20812;-48
2024/01/06 03:59:21;;;;;;;14.93;11.97;;;;;;;;;;5071227;28;20245;-48
2024/01/06 04:01:47;;;;;;;13.67;11.37;;;;;;;;;;5071406;28;20227;-48
2024/01/06 04:04:15;;;;;;;16.00;12.60;;;;;;;;;;5071547;28;20207;-48
2024/01/06 04:06:41;;;;;;;15.83;12.77;;;;;;;;;;5071319;28;20241;-48
2024/01/06 04:09:07;;;;;;;13.97;12.17;;;;;;;;;;5071198;28;20887;-48
2024/01/06 04:11:33;;;;;;;14.87;12.47;;;;;;;;;;5071026;28;20235;-48
2024/01/06 04:13:59;;;;;;;17.50;12.93;;;;;;;;;;5071351;28;20798;-48
2024/01/06 04:16:26;;;;;;;14.60;11.63;;;;;;;;;;5070916;28;20442;-48
2024/01/06 04:18:52;;;;;;;15.10;12.20;;;;;;;;;;5071085;28;20554;-48
2024/01/06 04:21:20;;;;;;;13.43;11.77;;;;;;;;;;5070979;28;20936;-48
2024/01/06 04:23:46;;;;;;;13.90;11.67;;;;;;;;;;5071268;28;20208;-48
2024/01/06 04:26:12;;;;;;;17.13;12.53;;;;;;;;;;5071233;28;20211;-48
2024/01/06 04:28:38;;;;;;;13.27;11.10;;;;;;;;;;5071260;28;20207;-48
2024/01/06 04:31:04;;;;;;;14.10;11.77;;;;;;;;;;5071138;28;20441;-48
2024/01/06 04:33:31;;;;;;;16.97;11.63;;;;;;;;;;5071070;28;20684;-48
2024/01/06 04:35:58;;;;;;;14.27;11.33;;;;;;;;;;5071158;28;20268;-49
2024/01/06 04:38:25;;;;;;;12.57;10.47;;;;;;;;;;5070944;28;20227;-48
2024/01/06 04:40:51;;;;;;;15.80;11.97;;;;;;;;;;5071073;28;20536;-48
2024/01/06 04:43:17;;;;;;;14.80;12.03;;;;;;;;;;5072189;28;20437;-48
2024/01/06 04:45:43;;;;;;;14.77;11.90;;;;;;;;;;5074607;28;20565;-49
2024/01/06 04:48:09;;;;;;;13.23;11.83;;;;;;;;;;5074516;28;20198;-48
2024/01/06 04:50:35;;;;;;;14.33;11.90;;;;;;;;;;5074426;28;20509;-48
2024/01/06 04:53:01;;;;;;;13.93;11.37;;;;;;;;;;5074593;28;20857;-48
2024/01/06 04:55:28;;;;;;;14.10;11.27;;;;;;;;;;5074443;28;20195;-48
2024/01/06 04:57:54;;;;;;;12.67;10.63;;;;;;;;;;5065647;28;20219;-48
2024/01/06 05:00:20;;;;;;;13.97;11.07;;;;;;;;;;5062307;28;20227;-48
2024/01/06 05:02:46;;;;;;;14.07;11.30;;;;;;;;;;5060590;28;20808;-48
2024/01/06 05:05:12;;;;;;;14.70;11.50;;;;;;;;;;5060613;28;20537;-48
2024/01/06 05:07:38;;;;;;;13.07;10.90;;;;;;;;;;5060296;28;20529;-48
2024/01/06 05:10:05;;;;;;;14.77;11.73;;;;;;;;;;5063754;28;20530;-48
2024/01/06 05:12:32;;;;;;;14.03;11.30;;;;;;;;;;5062143;28;20198;-48
2024/01/06 05:14:58;;;;;;;13.57;11.03;;;;;;;;;;5062362;28;20551;-49
2024/01/06 05:17:24;;;;;;;16.00;12.10;;;;;;;;;;5063571;28;21001;-48
2024/01/06 05:19:50;;;;;;;16.43;12.60;;;;;;;;;;5061969;28;20211;-48
2024/01/06 05:22:16;;;;;;;15.53;11.73;;;;;;;;;;5061946;28;20194;-47
2024/01/06 05:24:42;;;;;;;14.73;12.00;;;;;;;;;;5065448;28;20607;-48
2024/01/06 05:27:08;;;;;;;15.87;12.00;;;;;;;;;;5061858;28;20194;-47
2024/01/06 05:29:35;;;;;;;13.40;10.40;;;;;;;;;;5061744;28;20641;-48
2024/01/06 05:32:01;;;;;;;15.87;12.10;;;;;;;;;;5060420;28;20230;-48
2024/01/06 05:34:27;;;;;;;18.50;13.83;;;;;;;;;;5063722;28;20796;-48
2024/01/06 05:36:53;;;;;;;16.10;12.97;;;;;;;;;;5063506;28;20238;-49
2024/01/06 05:39:19;;;;;;;17.97;12.90;;;;;;;;;;5063475;28;20441;-48
2024/01/06 05:41:45;;;;;;;16.30;13.80;;;;;;;;;;5061698;28;20940;-48
2024/01/06 05:44:11;;;;;;;15.80;12.73;;;;;;;;;;5063516;28;20197;-48
2024/01/06 05:46:39;;;;;;;18.33;13.97;;;;;;;;;;5061545;28;20275;-48
2024/01/06 05:49:05;;;;;;;16.90;12.60;;;;;;;;;;5061461;28;20203;-48
2024/01/06 05:51:31;;;;;;;17.23;12.90;;;;;;;;;;5061419;28;20446;-49
2024/01/06 05:53:57;;;;;;;15.63;12.70;;;;;;;;;;5065098;28;20658;-49
2024/01/06 05:56:24;;;;;;;19.90;12.90;;;;;;;;;;5060668;28;20442;-48
2024/01/06 05:58:50;;;;;;;19.80;14.13;;;;;;;;;;5061385;28;20475;-48
2024/01/06 06:01:16;;;;;;;16.27;12.90;;;;;;;;;;5059612;28;20191;-48
2024/01/06 06:03:44;;;;;;;17.30;13.83;;;;;;;;;;5061053;28;20195;-49
2024/01/06 06:06:10;;;;;;;18.43;12.53;;;;;;;;;;5060938;28;20685;-48
2024/01/06 06:08:36;;;;;;;18.97;14.70;;;;;;;;;;5060951;28;20461;-49
2024/01/06 06:11:04;;;;;;;18.00;13.60;;;;;;;;;;5061019;28;20714;-48
2024/01/06 06:13:31;;;;;;;19.97;14.57;;;;;;;;;;5061005;28;20650;-48
2024/01/06 06:15:57;;;;;;;19.63;14.40;;;;;;;;;;5061058;28;20426;-48
2024/01/06 06:18:23;;;;;;;17.67;13.10;;;;;;;;;;5058971;28;20465;-48
2024/01/06 06:20:51;;;;;;;18.80;12.33;;;;;;;;;;5060927;28;20999;-49
2024/01/06 06:23:17;;;;;;;18.07;13.40;;;;;;;;;;5062616;28;20430;-48
2024/01/06 06:25:43;;;;;;;15.97;12.00;;;;;;;;;;5060783;28;20430;-48
2024/01/06 06:28:09;;;;;;;18.13;14.30;;;;;;;;;;5060765;28;20553;-47
2024/01/06 06:30:35;;;;;;;17.03;12.27;;;;;;;;;;5060593;28;20199;-48
2024/01/06 06:33:01;;;;;;;18.33;12.63;;;;;;;;;;5059026;28;20434;-48
2024/01/06 06:35:27;;;;;;;16.43;13.03;;;;;;;;;;5062208;28;20495;-48
2024/01/06 06:37:54;;;;;;;17.60;12.40;;;;;;;;;;5058875;28;20223;-49
2024/01/06 06:40:20;;;;;;;16.37;13.20;;;;;;;;;;5060404;28;20199;-49
2024/01/06 06:42:46;;;;;;;17.40;12.53;;;;;;;;;;5058638;28;20454;-48
2024/01/06 06:45:12;;;;;;;16.60;12.37;;;;;;;;;;5060494;28;20249;-48
2024/01/06 06:47:38;;;;;;;16.23;12.17;;;;;;;;;;5060052;28;20191;-49
2024/01/06 06:50:05;;;;;;;18.57;13.03;;;;;;;;;;5060386;28;20199;-48
2024/01/06 06:52:31;;;;;;;16.87;12.53;;;;;;;;;;5063654;28;21517;-48
2024/01/06 06:54:58;;;;;;;18.03;13.37;;;;;;;;;;5060216;28;20499;-48
2024/01/06 06:57:24;;;;;;;18.33;12.37;;;;;;;;;;5060215;28;20227;-48
2024/01/06 06:59:50;;;;;;;16.23;12.80;;;;;;;;;;5060076;28;20445;-48
2024/01/06 07:02:16;;;;;;;18.83;12.30;;;;;;;;;;5058469;28;20525;-49
2024/01/06 07:04:43;;;;;;;17.33;12.83;;;;;;;;;;5058260;28;20453;-48
2024/01/06 07:07:09;;;;;;;17.77;14.03;;;;;;;;;;5057278;28;20859;-48
2024/01/06 07:09:35;;;;;;;16.03;13.03;;;;;;;;;;5059903;28;20529;-48
2024/01/06 07:12:02;;;;;;;17.07;12.60;;;;;;;;;;5059957;28;20243;-49
2024/01/06 07:14:28;;;;;;;17.10;13.17;;;;;;;;;;5059943;28;20612;-48
2024/01/06 07:16:54;;;;;;;17.70;13.20;;;;;;;;;;5061390;28;20982;-49
2024/01/06 07:19:20;;;;;;;18.73;13.53;;;;;;;;;;5061510;28;20244;-49
2024/01/06 07:21:46;;;;;;;16.00;12.63;;;;;;;;;;5061427;28;20657;-49
2024/01/06 07:24:13;;;;;;;16.00;11.90;;;;;;;;;;5059942;28;20199;-49
2024/01/06 07:26:39;;;;;;;15.20;12.70;;;;;;;;;;5059677;28;20495;-49
2024/01/06 07:29:08;;;;;;;17.53;13.63;;;;;;;;;;5066710;28;20438;-49
2024/01/06 07:31:33;;;;;;;15.97;12.23;;;;;;;;;;5071627;28;20203;-49
2024/01/06 07:34:00;;;;;;;15.87;11.60;;;;;;;;;;5071759;28;20434;-49
2024/01/06 07:36:26;;;;;;;17.77;12.87;;;;;;;;;;5071675;28;20195;-49
2024/01/06 07:38:51;;;;;;;14.80;11.57;;;;;;;;;;5071381;28;20722;-49
2024/01/06 07:41:17;;;;;;;15.10;11.93;;;;;;;;;;5071619;28;20195;-49
2024/01/06 07:43:44;;;;;;;14.13;11.40;;;;;;;;;;5071563;28;20195;-49
2024/01/06 07:46:11;;;;;;;14.10;11.70;;;;;;;;;;5071532;28;20199;-49
2024/01/06 07:48:37;;;;;;;14.87;11.13;;;;;;;;;;5071355;28;20430;-50
2024/01/06 07:51:03;;;;;;;14.70;11.03;;;;;;;;;;5071516;28;20556;-49
2024/01/06 07:53:29;;;;;;;14.23;11.23;;;;;;;;;;5071590;28;20433;-49
2024/01/06 07:55:55;;;;;;;15.17;11.07;;;;;;;;;;5071242;28;20444;-50
2024/01/06 07:58:21;;;;;;;14.33;10.60;;;;;;;;;;5071455;28;20481;-49
2024/01/06 08:00:47;;;;;;;15.30;11.07;;;;;;;;;;5071404;28;20441;-49
2024/01/06 08:03:16;;;;;;;13.20;10.70;;;;;;;;;;5071371;28;20214;-49
2024/01/06 08:05:42;;;;;;;13.83;10.77;;;;;;;;;;5071313;28;20450;-49
2024/01/06 08:08:08;;;;;;;14.47;11.37;;;;;;;;;;5071253;28;20492;-49
2024/01/06 08:10:34;;;;;;;13.83;10.93;;;;;;;;;;5071111;28;20246;-48
2024/01/06 08:13:00;;;;;;;15.63;10.80;;;;;;;;;;5071389;28;20442;-49
2024/01/06 08:15:26;;;;;;;15.27;10.90;;;;;;;;;;5071207;28;20693;-49
2024/01/06 08:17:52;;;;;;;14.03;10.70;;;;;;;;;;5071589;28;20473;-49
2024/01/06 08:20:20;;;;;;;14.03;10.90;;;;;;;;;;5075079;28;20840;-49
2024/01/06 08:22:46;;;;;;;14.53;11.00;;;;;;;;;;5075003;28;20445;-49
2024/01/06 08:25:13;;;;;;;15.10;11.00;;;;;;;;;;5074876;28;20437;-50
2024/01/06 08:27:39;;;;;;;14.00;10.37;;;;;;;;;;5074780;28;20196;-49
2024/01/06 08:30:06;;;;;;;12.80;10.93;;;;;;;;;;5074700;28;20421;-49
2024/01/06 08:32:32;;;;;;;11.67;9.50;;;;;;;;;;5074420;28;20202;-49
2024/01/06 08:34:58;;;;;;;12.37;9.67;;;;;;;;;;5074707;28;20442;-49
2024/01/06 08:37:25;;;;;;;12.47;10.10;;;;;;;;;;5066186;28;20255;-49
2024/01/06 08:39:51;;;;;;;14.60;10.27;;;;;;;;;;5061125;28;20207;-49
2024/01/06 08:42:17;;;;;;;13.00;10.00;;;;;;;;;;5062814;28;20438;-49
2024/01/06 08:44:43;;;;;;;12.90;10.37;;;;;;;;;;5060934;28;20657;-49
2024/01/06 08:47:09;;;;;;;13.33;10.30;;;;;;;;;;5062611;28;20429;-49
2024/01/06 08:49:35;;;;;;;11.93;9.73;;;;;;;;;;5060795;28;20437;-49
2024/01/06 08:52:01;;;;;;;12.87;9.50;;;;;;;;;;5064388;28;20533;-49
2024/01/06 08:54:28;;;;;;;12.73;9.53;;;;;;;;;;5062595;28;20437;-47
2024/01/06 08:56:55;;;;;;;10.57;8.80;;;;;;;;;;5064025;28;20215;-49
2024/01/06 08:59:21;;;;;;;13.17;9.80;;;;;;;;;;5064274;28;20693;-49
2024/01/06 09:01:47;;;;;;;10.87;9.07;;;;;;;;;;5060673;28;20446;-49
2024/01/06 09:04:13;;;;;;;12.00;8.47;;;;;;;;;;5062578;28;20252;-49
2024/01/06 09:06:39;;;;;;;13.67;10.43;;;;;;;;;;5062329;28;20278;-49
2024/01/06 09:09:05;;;;;;;12.47;10.30;;;;;;;;;;5062358;28;20195;-48
2024/01/06 09:11:33;;;;;;;11.53;8.50;;;;;;;;;;5063677;28;20469;-48
2024/01/06 09:13:59;;;;;;;9.23;7.77;;;;;;;;;;5073368;28;20951;-47
2024/01/06 09:16:25;;;;;;;10.00;8.23;;;;;;;;;;5073427;28;20533;-49
2024/01/06 09:18:51;;;;;;;10.37;8.27;;;;;;;;;;5073337;28;20516;-48
2024/01/06 09:21:17;;;;;;;10.60;7.57;;;;;;;;;;5074024;28;20430;-48
2024/01/06 09:23:43;;;;;;;9.23;7.80;;;;;;;;;;5069511;28;20203;-47
2024/01/06 09:26:09;;;;;;;10.70;8.20;;;;;;;;;;5067733;28;20536;-48
2024/01/06 09:28:36;;;;;;;9.37;7.43;;;;;;;;;;5073735;28;20227;-49
2024/01/06 09:31:04;;;;;;;9.40;8.07;;;;;;;;;;5067794;28;21258;-49
2024/01/06 09:33:32;;;;;;;9.47;7.43;;;;;;;;;;5073592;28;20465;-48
2024/01/06 09:35:58;;;;;;;8.37;7.43;;;;;;;;;;5073642;28;20449;-48
2024/01/06 09:38:24;;;;;;;8.93;7.80;;;;;;;;;;5073528;28;20478;-49
2024/01/06 09:40:50;;;;;;;10.07;7.33;;;;;;;;;;5073368;28;20674;-49
2024/01/06 09:43:16;;;;;;;10.90;8.30;;;;;;;;;;5073454;28;20206;-49
2024/01/06 09:45:44;;;;;;;10.37;7.63;;;;;;;;;;5073307;28;20196;-49
2024/01/06 09:48:11;;;;;;;8.17;7.37;;;;;;;;;;5072840;28;20441;-48
2024/01/06 09:50:38;;;;;;;8.13;7.30;;;;;;;;;;5072834;28;20862;-48
2024/01/06 09:53:06;;;;;;;6.70;6.00;;;;;;;;;;5072960;28;20473;-48
2024/01/06 09:55:32;;;;;;;8.27;6.23;;;;;;;;;;5070610;28;20441;-49
2024/01/06 09:57:58;;;;;;;6.40;5.80;;;;;;;;;;5071020;28;20465;-48
2024/01/06 10:00:24;;;;;;;6.30;5.70;;;;;;;;;;5072333;28;20200;-49
2024/01/06 10:02:52;;;;;;;6.43;5.63;;;;;;;;;;5072975;28;20446;-49
2024/01/06 10:05:18;;;;;;;6.57;5.90;;;;;;;;;;5073113;28;20243;-48
2024/01/06 10:07:44;;;;;;;8.13;5.97;;;;;;;;;;5072970;28;20442;-49
2024/01/06 10:10:10;;;;;;;6.77;5.77;;;;;;;;;;5072972;28;20859;-49
2024/01/06 10:12:38;;;;;;;8.80;6.13;;;;;;;;;;5072872;28;20473;-48
2024/01/06 10:15:06;;;;;;;7.03;5.43;;;;;;;;;;5072618;28;20433;-49
2024/01/06 10:17:32;;;;;;;9.67;5.67;;;;;;;;;;5072599;28;20465;-49
2024/01/06 10:19:59;;;;;;;7.70;5.80;;;;;;;;;;5065713;28;20434;-48
2024/01/06 10:22:25;;;;;;;6.77;5.70;;;;;;;;;;5069005;28;20445;-50
2024/01/06 10:24:51;;;;;;;7.60;5.57;;;;;;;;;;5070897;28;20448;-50
2024/01/06 10:27:17;;;;;;;8.27;5.47;;;;;;;;;;5072940;28;20537;-49
2024/01/06 10:29:45;;;;;;;8.60;6.03;;;;;;;;;;5072750;28;20226;-49
2024/01/06 10:32:10;;;;;;;6.40;5.57;;;;;;;;;;5072489;28;20685;-49
2024/01/06 10:34:37;;;;;;;6.43;5.83;;;;;;;;;;5072729;28;20473;-49
2024/01/06 10:37:05;;;;;;;6.87;5.43;;;;;;;;;;5072438;28;20210;-50
2024/01/06 10:39:31;;;;;;;6.43;5.60;;;;;;;;;;5072538;28;20924;-49
2024/01/06 10:41:57;;;;;;;8.03;5.50;;;;;;;;;;5072125;28;20858;-49
2024/01/06 10:44:24;;;;;;;8.83;6.30;;;;;;;;;;5072413;28;20475;-50
2024/01/06 10:46:50;;;;;;;6.57;5.87;;;;;;;;;;5070467;28;20453;-50
2024/01/06 10:49:17;;;;;;;8.83;6.10;;;;;;;;;;5069291;28;20991;-48
2024/01/06 10:51:45;;;;;;;7.37;6.20;;;;;;;;;;5065666;28;20545;-49
2024/01/06 10:54:12;;;;;;;6.17;5.50;;;;;;;;;;5063632;28;20446;-49
2024/01/06 10:56:38;;;;;;;6.63;5.60;;;;;;;;;;5062053;28;20451;-50
2024/01/06 10:59:04;;;;;;;6.53;5.23;;;;;;;;;;5065189;28;20567;-50
2024/01/06 11:01:31;;;;;;;6.70;6.00;;;;;;;;;;5067211;28;20824;-50
2024/01/06 11:03:58;;;;;;;6.50;5.83;;;;;;;;;;5063344;28;20928;-49
2024/01/06 11:06:25;;;;;;;6.80;6.10;;;;;;;;;;5066883;28;20532;-49
2024/01/06 11:08:52;;;;;;;9.00;6.57;;;;;;;;;;5070051;28;20688;-49
2024/01/06 11:11:20;;;;;;;8.87;7.07;;;;;;;;;;5064812;28;20469;-49
2024/01/06 11:13:47;;;;;;;8.27;6.93;;;;;;;;;;5064965;28;20878;-49
2024/01/06 11:16:33;;;;;;;8.33;6.97;;;;;;;;;;5063199;28;20433;-49
2024/01/06 11:18:59;;;;;;;9.33;6.50;;;;;;;;;;5064882;28;20473;-49
2024/01/06 11:21:25;;;;;;;8.63;6.63;;;;;;;;;;5063219;28;20954;-49
2024/01/06 11:24:15;;;;;;;7.87;6.23;;;;;;;;;;5064737;28;20253;-50
2024/01/06 11:26:44;;;;;;;8.00;6.70;;;;;;;;;;5067400;28;20491;-49
2024/01/06 11:29:10;;;;;;;11.90;7.10;;;;;;;;;;5060405;28;20442;-49
2024/01/06 11:31:37;;;;;;;8.40;6.97;;;;;;;;;;5064399;28;20448;-49
2024/01/06 11:34:13;;;;;;;10.47;7.83;;;;;;;;;;5065951;28;20207;-49
2024/01/06 11:36:39;;;;;;;9.40;6.83;;;;;;;;;;5062748;28;20992;-49
2024/01/06 11:39:05;;;;;;;8.33;6.43;;;;;;;;;;5061033;28;20485;-50
2024/01/06 11:41:47;;;;;;;9.43;7.57;;;;;;;;;;5066554;28;20210;-50
2024/01/06 11:44:14;;;;;;;8.57;7.23;;;;;;;;;;5060388;28;20437;-49
2024/01/06 11:46:41;;;;;;;10.90;7.70;;;;;;;;;;5063091;28;20468;-49
2024/01/06 11:49:09;;;;;;;8.37;7.30;;;;;;;;;;5064673;28;20430;-49
2024/01/06 11:51:35;;;;;;;10.10;7.93;;;;;;;;;;5064757;28;20453;-49
2024/01/06 11:54:01;;;;;;;9.00;7.77;;;;;;;;;;5065715;28;20441;-49
2024/01/06 11:56:27;;;;;;;10.00;7.13;;;;;;;;;;5065485;28;20199;-49
2024/01/06 11:58:53;;;;;;;12.07;8.73;;;;;;;;;;5072177;28;20473;-50
2024/01/06 12:01:21;;;;;;;12.03;8.03;;;;;;;;;;5068885;28;20725;-50
2024/01/06 12:03:47;;;;;;;9.20;6.50;;;;;;;;;;5065373;28;20207;-49
2024/01/06 12:06:13;;;;;;;7.63;6.67;;;;;;;;;;5067088;28;20453;-49
2024/01/06 12:08:39;;;;;;;9.63;7.30;;;;;;;;;;5065175;28;20955;-49
2024/01/06 12:11:07;;;;;;;11.33;7.53;;;;;;;;;;5066199;28;20249;-49
2024/01/06 12:13:33;;;;;;;9.80;7.40;;;;;;;;;;5066971;28;20924;-49
2024/01/06 12:16:00;;;;;;;9.40;7.03;;;;;;;;;;5068639;28;20433;-49
2024/01/06 12:18:28;;;;;;;9.70;6.93;;;;;;;;;;5066608;28;20231;-49
2024/01/06 12:20:54;;;;;;;8.83;7.63;;;;;;;;;;5066613;28;20445;-49
2024/01/06 12:23:27;;;;;;;8.60;6.90;;;;;;;;;;5071670;28;20472;-50
2024/01/06 12:25:53;;;;;;;9.73;7.47;;;;;;;;;;5066501;28;20480;-50
2024/01/06 12:28:19;;;;;;;8.00;6.33;;;;;;;;;;5064847;28;20469;-50
2024/01/06 12:30:45;;;;;;;8.43;6.73;;;;;;;;;;5071866;28;20445;-50
2024/01/06 12:33:12;;;;;;;8.23;6.23;;;;;;;;;;5074995;28;20442;-49
2024/01/06 12:35:39;;;;;;;7.87;7.07;;;;;;;;;;5075122;28;20294;-49
2024/01/06 12:38:06;;;;;;;11.70;7.60;;;;;;;;;;5074778;28;20523;-48
2024/01/06 12:40:32;;;;;;;8.30;6.93;;;;;;;;;;5074998;28;20437;-49
2024/01/06 12:42:58;;;;;;;8.00;6.63;;;;;;;;;;5074867;28;20958;-49
2024/01/06 12:45:24;;;;;;;7.73;6.57;;;;;;;;;;5074827;28;20547;-49
2024/01/06 12:47:51;;;;;;;8.10;6.60;;;;;;;;;;5074737;28;20434;-48
2024/01/06 12:50:18;;;;;;;7.87;6.70;;;;;;;;;;5074750;28;20199;-49
2024/01/06 12:52:45;;;;;;;9.13;7.47;;;;;;;;;;5074855;28;20442;-49
2024/01/06 12:55:12;;;;;;;7.97;6.80;;;;;;;;;;5074783;28;20522;-49
2024/01/06 12:57:38;;;;;;;10.10;6.93;;;;;;;;;;5074625;28;20501;-49
2024/01/06 13:00:07;;;;;;;10.60;7.43;;;;;;;;;;5074496;28;20962;-49
2024/01/06 13:02:33;;;;;;;13.73;8.27;;;;;;;;;;5074658;28;20199;-49
2024/01/06 13:04:59;;;;;;;11.40;8.20;;;;;;;;;;5074423;28;20445;-49
2024/01/06 13:07:25;;;;;;;11.73;8.30;;;;;;;;;;5074500;28;20241;-49
2024/01/06 13:09:53;;;;;;;10.40;7.97;;;;;;;;;;5074288;28;20221;-49
2024/01/06 13:12:19;;;;;;;10.37;8.30;;;;;;;;;;5074485;28;20438;-48
2024/01/06 13:14:47;;;;;;;10.37;8.00;;;;;;;;;;5074433;28;20433;-49
2024/01/06 13:17:14;;;;;;;9.27;7.47;;;;;;;;;;5074090;28;20864;-49
2024/01/06 13:19:40;;;;;;;10.03;7.93;;;;;;;;;;5074234;28;20430;-49
2024/01/06 13:22:06;;;;;;;9.77;7.17;;;;;;;;;;5074172;28;20438;-49
2024/01/06 13:24:32;;;;;;;10.47;7.37;;;;;;;;;;5074032;28;20904;-49
2024/01/06 13:27:02;;;;;;;10.63;8.40;;;;;;;;;;5074075;28;20438;-49
2024/01/06 13:29:28;;;;;;;9.73;7.63;;;;;;;;;;5074253;28;20432;-49
2024/01/06 13:31:54;;;;;;;9.83;7.80;;;;;;;;;;5073802;28;20545;-49
2024/01/06 13:34:21;;;;;;;10.63;7.97;;;;;;;;;;5072996;28;20473;-49
2024/01/06 13:36:47;;;;;;;9.13;7.90;;;;;;;;;;5061338;28;20202;-49
2024/01/06 13:39:20;;;;;;;12.03;8.60;;;;;;;;;;5063107;28;20481;-49
2024/01/06 13:41:47;;;;;;;10.60;8.00;;;;;;;;;;5066921;28;20685;-49
2024/01/06 13:44:14;;;;;;;8.30;7.40;;;;;;;;;;5064937;28;20456;-49
2024/01/06 13:46:44;;;;;;;9.90;7.37;;;;;;;;;;5062990;28;20532;-49
2024/01/06 13:49:10;;;;;;;9.17;8.10;;;;;;;;;;5059536;28;20446;-49
2024/01/06 13:51:37;;;;;;;10.97;7.47;;;;;;;;;;5062914;28;20798;-49
2024/01/06 13:54:03;;;;;;;12.10;8.13;;;;;;;;;;5066396;28;20524;-49
2024/01/06 13:56:29;;;;;;;8.90;7.43;;;;;;;;;;5064793;28;20452;-49
2024/01/06 13:58:55;;;;;;;9.40;7.93;;;;;;;;;;5064385;28;20991;-49
2024/01/06 14:01:23;;;;;;;10.63;8.00;;;;;;;;;;5062808;28;20196;-49
2024/01/06 14:03:49;;;;;;;9.53;7.03;;;;;;;;;;5066013;28;20868;-48
2024/01/06 14:06:17;;;;;;;10.70;8.00;;;;;;;;;;5072811;28;20481;-48
2024/01/06 14:08:43;;;;;;;9.10;7.70;;;;;;;;;;5072987;28;20457;-49
2024/01/06 14:11:09;;;;;;;10.77;7.70;;;;;;;;;;5072510;28;20484;-49
2024/01/06 14:13:35;;;;;;;10.93;8.40;;;;;;;;;;5072531;28;20433;-48
2024/01/06 14:16:01;;;;;;;9.13;7.80;;;;;;;;;;5072307;28;20569;-49
2024/01/06 14:18:28;;;;;;;8.90;7.23;;;;;;;;;;5073110;28;20219;-49
2024/01/06 14:20:56;;;;;;;8.83;7.83;;;;;;;;;;5073117;28;20457;-48